Pagrindinis puslapis
METAR-TAF:

METAR-TAF

Oro uostai :

Mitiga International Airport

Tripolis, Libija

platuma: 32-54N, ilguma: 13-17E, Aukštis: 11 m

METAR: trūkstamas

Laikas: 10:25 (08:25 UTC)

Prognozė

Ataskaita buvo paskelbta 21 valandos ir 25 minutes, ne 11:00 UTC
Prognozė galioja nuo 08 metu 12 UTC su 09 metu 12 UTC
Vėjas 10 kt iš Šiaurės/Šiaurės Vakarų
Matomumas 10 km arba daugiau
Išsisklaidę debesys ne aukštis 2500 ft
Tapsmas
nuo 08 metu 21 UTC su 08 metu 23 UTC
Vėjas 2 kt nuo kintamojo kryptimis
Tapsmas
nuo 09 metu 09 UTC su 09 metu 11 UTC
Vėjas 10 kt iš Šiaurės/Šiaurės Vakarų

TAF: HLLM 081100Z 0812/0912 34010KT 9999 SCT025 BECMG 0821/0823 VRB02KT BECMG 0909/0911 34010KT

Orai ataskaitas ir orų prognozės (METAR, TAF).

turimą stotys yra geltonos ir raudonos taškus žemėlapyje.

Perkelti pele per norėdami pamatyti stoties vardą.

Tada spustelėkite, norėdami matyti oro stebėjimo ir prognozės.

Norėdami pakeisti žemėlapį: spustelėkite ant žalios mygtukų su juodo kryžiaus žemyn,; žalią mygtuką su brūkšneliu, jei norite nutolinti; arba žalių rodyklių gretimoms žemėlapius.


METAR-TAF: